createdAt,value
2022-08-14T12:19:12.086Z,25.90
2022-08-14T12:23:27.698Z,27.70
2022-08-14T12:27:51.761Z,28.90
2022-08-14T12:32:08.846Z,29.60
2022-08-14T12:36:25.458Z,29.80
2022-08-14T12:40:31.944Z,29.70
2022-08-14T12:44:43.122Z,29.80
2022-08-14T12:48:50.386Z,30.20
2022-08-14T12:53:14.274Z,30.60
2022-08-14T12:57:20.811Z,31.00
2022-08-14T13:01:28.572Z,31.20
2022-08-14T13:05:38.303Z,31.40
2022-08-14T13:09:48.175Z,31.50
2022-08-14T13:14:00.484Z,31.70
2022-08-14T13:18:06.892Z,31.70
2022-08-14T13:22:19.475Z,31.40
2022-08-14T13:26:40.418Z,31.40
2022-08-14T13:30:53.654Z,31.40
2022-08-14T13:35:01.057Z,31.30
2022-08-14T13:39:07.115Z,31.20
2022-08-14T13:43:24.565Z,31.10
2022-08-14T13:47:36.950Z,31.00
2022-08-14T13:51:46.161Z,31.00
2022-08-14T13:55:53.688Z,31.20
2022-08-14T14:00:08.574Z,31.40
2022-08-14T14:04:20.338Z,31.60
2022-08-14T14:08:43.315Z,31.70
2022-08-14T14:12:56.133Z,31.70
2022-08-14T14:17:05.278Z,32.00
2022-08-14T14:21:12.870Z,32.00
2022-08-14T14:25:22.486Z,31.90
2022-08-14T14:29:28.950Z,31.90
2022-08-14T14:33:48.894Z,31.80
2022-08-14T14:37:55.273Z,31.90
2022-08-14T14:42:04.406Z,32.00
2022-08-14T14:46:13.222Z,32.10
2022-08-14T14:50:21.958Z,32.20
2022-08-14T14:54:31.939Z,32.10
2022-08-14T14:58:46.406Z,31.90
2022-08-14T15:02:57.831Z,32.00
2022-08-14T15:07:08.102Z,32.10
2022-08-14T15:11:13.916Z,32.00
2022-08-14T15:15:19.319Z,32.00
2022-08-14T15:19:25.526Z,31.90
2022-08-14T15:23:44.729Z,31.80
2022-08-14T15:27:54.744Z,31.60
2022-08-14T15:32:00.348Z,31.50
2022-08-14T15:36:06.444Z,31.50
2022-08-14T15:40:34.346Z,31.40
2022-08-14T15:44:43.912Z,31.20
2022-08-14T15:49:03.477Z,31.10
2022-08-14T15:53:12.241Z,31.10
2022-08-14T15:57:21.514Z,31.20
2022-08-14T16:01:52.797Z,31.20
2022-08-14T16:05:54.424Z,31.10
2022-08-14T16:10:28.234Z,31.10
2022-08-14T16:14:34.420Z,31.20
2022-08-14T16:18:41.831Z,31.10
2022-08-14T16:23:00.258Z,31.10
2022-08-14T16:27:07.548Z,31.00
2022-08-14T16:31:16.721Z,31.00
2022-08-14T16:35:26.470Z,30.90
2022-08-14T16:39:53.825Z,30.90
2022-08-14T16:44:02.715Z,30.80
2022-08-14T16:48:54.844Z,30.70
2022-08-14T16:52:45.012Z,30.70
2022-08-14T16:57:16.331Z,30.70
2022-08-14T17:01:27.359Z,30.80
2022-08-14T17:05:38.417Z,30.70
2022-08-14T17:09:45.731Z,30.70
2022-08-14T17:14:00.638Z,30.70
2022-08-14T17:18:06.624Z,30.60
2022-08-14T17:22:17.315Z,30.50
2022-08-14T17:26:44.427Z,30.50
2022-08-14T17:30:53.717Z,30.20
2022-08-14T17:35:01.538Z,30.20
2022-08-14T17:39:11.787Z,30.20
2022-08-14T17:43:17.479Z,30.10
2022-08-14T17:47:24.470Z,30.00
2022-08-14T17:51:30.130Z,29.90
2022-08-14T17:56:01.916Z,30.00
2022-08-14T18:00:04.111Z,29.90
2022-08-14T18:04:24.729Z,29.80
2022-08-14T18:08:40.855Z,29.80
2022-08-14T18:12:50.938Z,29.70
2022-08-14T18:16:58.713Z,29.60
2022-08-14T18:21:24.592Z,29.40
2022-08-14T18:25:34.233Z,29.30
2022-08-14T18:29:55.494Z,29.20
2022-08-14T18:34:02.990Z,29.10
2022-08-14T18:38:26.030Z,29.00
2022-08-14T18:42:45.338Z,28.80
2022-08-14T18:47:28.794Z,28.80
2022-08-14T18:51:45.228Z,28.70
2022-08-14T18:55:54.679Z,28.60
2022-08-14T19:00:00.144Z,28.40
2022-08-14T19:04:08.489Z,28.40
2022-08-14T19:08:27.155Z,28.30
2022-08-14T19:13:13.086Z,28.30
2022-08-14T19:17:43.150Z,28.30
2022-08-14T19:22:29.588Z,28.20
2022-08-14T19:26:54.745Z,28.20
2022-08-14T19:31:37.001Z,28.30
2022-08-14T19:36:00.122Z,28.30
2022-08-14T19:40:19.410Z,28.30
2022-08-14T19:44:31.639Z,28.40
2022-08-14T19:48:38.045Z,28.30
2022-08-14T19:52:43.413Z,28.20
2022-08-14T19:56:54.011Z,28.10
2022-08-14T20:00:59.778Z,28.10
2022-08-14T20:05:11.334Z,28.10
2022-08-14T20:11:08.411Z,28.10
2022-08-14T20:13:49.495Z,28.00
2022-08-14T20:17:55.038Z,28.00
2022-08-14T20:22:34.802Z,27.90
2022-08-14T20:26:31.712Z,27.90
2022-08-14T20:30:44.807Z,27.80
2022-08-14T20:34:57.781Z,27.70
2022-08-14T20:39:04.162Z,27.60
2022-08-14T20:43:35.290Z,27.50
2022-08-14T20:47:53.710Z,27.40
2022-08-14T20:52:00.199Z,27.40
2022-08-14T20:56:30.266Z,27.50
2022-08-14T21:00:52.523Z,27.50
2022-08-14T21:05:03.924Z,27.60
2022-08-14T21:09:43.814Z,27.60
2022-08-14T21:14:19.706Z,27.60
2022-08-14T21:18:17.314Z,27.60
2022-08-14T21:22:27.054Z,27.50
2022-08-14T21:26:52.027Z,27.40
2022-08-14T21:30:59.868Z,27.40
2022-08-14T21:35:08.659Z,27.30
2022-08-14T21:39:19.550Z,27.30
2022-08-14T21:43:26.938Z,27.00
2022-08-14T21:47:35.540Z,27.00
2022-08-14T21:51:54.930Z,26.90
2022-08-14T21:56:06.065Z,26.80
2022-08-14T22:00:35.086Z,26.80
2022-08-14T22:04:43.213Z,26.70
2022-08-14T22:08:52.793Z,26.70
2022-08-14T22:13:01.745Z,26.60
2022-08-14T22:17:12.625Z,26.60
2022-08-14T22:21:21.570Z,26.50
2022-08-14T22:25:34.042Z,26.40
2022-08-14T22:29:42.604Z,26.30
2022-08-14T22:33:57.685Z,26.30
2022-08-14T22:38:36.058Z,26.20
2022-08-14T22:42:35.304Z,26.20
2022-08-14T22:46:46.495Z,26.20
2022-08-14T22:50:53.315Z,26.20
2022-08-14T22:54:59.428Z,26.20
2022-08-14T22:59:11.583Z,26.20
2022-08-14T23:03:22.842Z,26.30
2022-08-14T23:08:59.027Z,26.30
2022-08-14T23:11:56.660Z,26.40
2022-08-14T23:16:02.142Z,26.40
2022-08-14T23:20:18.972Z,26.50
2022-08-14T23:24:27.802Z,26.40
2022-08-14T23:28:56.359Z,26.00
2022-08-14T23:33:00.841Z,25.70
2022-08-14T23:37:10.021Z,25.10
2022-08-14T23:41:17.450Z,25.00
2022-08-14T23:45:36.578Z,25.20
2022-08-14T23:50:01.124Z,25.30
2022-08-14T23:54:48.237Z,25.60
2022-08-14T23:58:37.050Z,25.60
